sensor_id;sensor_type;location;lat;lon;timestamp;temperature;humidity
11647;DHT22;5880;52.342;9.662;2022-10-23T00:01:32;15.10;68.60
11647;DHT22;5880;52.342;9.662;2022-10-23T00:04:14;15.10;68.60
11647;DHT22;5880;52.342;9.662;2022-10-23T00:06:43;15.10;68.60
11647;DHT22;5880;52.342;9.662;2022-10-23T00:09:11;15.10;68.60
11647;DHT22;5880;52.342;9.662;2022-10-23T00:11:40;15.10;68.70
11647;DHT22;5880;52.342;9.662;2022-10-23T00:14:08;15.10;68.70
11647;DHT22;5880;52.342;9.662;2022-10-23T00:16:35;15.20;68.70
11647;DHT22;5880;52.342;9.662;2022-10-23T00:19:02;15.10;68.70
11647;DHT22;5880;52.342;9.662;2022-10-23T00:21:28;15.10;68.70
11647;DHT22;5880;52.342;9.662;2022-10-23T00:23:54;15.10;68.80
11647;DHT22;5880;52.342;9.662;2022-10-23T00:26:19;15.10;68.80
11647;DHT22;5880;52.342;9.662;2022-10-23T00:28:48;15.10;68.80
11647;DHT22;5880;52.342;9.662;2022-10-23T00:31:16;15.10;68.90
11647;DHT22;5880;52.342;9.662;2022-10-23T00:33:44;15.10;68.90
11647;DHT22;5880;52.342;9.662;2022-10-23T00:36:12;15.10;69.00
11647;DHT22;5880;52.342;9.662;2022-10-23T00:38:39;15.10;69.20
11647;DHT22;5880;52.342;9.662;2022-10-23T00:41:06;15.10;69.30
11647;DHT22;5880;52.342;9.662;2022-10-23T00:43:34;15.20;69.40
11647;DHT22;5880;52.342;9.662;2022-10-23T00:46:18;15.20;69.30
11647;DHT22;5880;52.342;9.662;2022-10-23T00:48:44;15.20;69.10
11647;DHT22;5880;52.342;9.662;2022-10-23T00:51:10;15.20;69.20
11647;DHT22;5880;52.342;9.662;2022-10-23T00:53:36;15.20;69.20
11647;DHT22;5880;52.342;9.662;2022-10-23T00:56:02;15.30;69.40
11647;DHT22;5880;52.342;9.662;2022-10-23T00:58:28;15.30;69.40
11647;DHT22;5880;52.342;9.662;2022-10-23T01:00:55;15.30;69.50
11647;DHT22;5880;52.342;9.662;2022-10-23T01:03:24;15.30;69.50
11647;DHT22;5880;52.342;9.662;2022-10-23T01:06:12;15.30;69.60
11647;DHT22;5880;52.342;9.662;2022-10-23T01:09:08;15.40;69.90
11647;DHT22;5880;52.342;9.662;2022-10-23T01:14:59;15.40;69.60
11647;DHT22;5880;52.342;9.662;2022-10-23T01:20:39;15.50;69.60
11647;DHT22;5880;52.342;9.662;2022-10-23T01:25:51;15.50;69.40
11647;DHT22;5880;52.342;9.662;2022-10-23T01:28:35;15.50;69.40
11647;DHT22;5880;52.342;9.662;2022-10-23T01:31:12;15.50;69.50
11647;DHT22;5880;52.342;9.662;2022-10-23T01:33:49;15.50;69.30
11647;DHT22;5880;52.342;9.662;2022-10-23T01:36:22;15.50;69.30
11647;DHT22;5880;52.342;9.662;2022-10-23T01:39:05;15.50;69.20
11647;DHT22;5880;52.342;9.662;2022-10-23T01:42:09;15.50;69.30
11647;DHT22;5880;52.342;9.662;2022-10-23T01:44:50;15.50;69.40
11647;DHT22;5880;52.342;9.662;2022-10-23T01:47:22;15.50;69.20
11647;DHT22;5880;52.342;9.662;2022-10-23T01:49:52;15.40;68.90
11647;DHT22;5880;52.342;9.662;2022-10-23T01:52:21;15.40;68.80
11647;DHT22;5880;52.342;9.662;2022-10-23T01:54:49;15.40;68.70
11647;DHT22;5880;52.342;9.662;2022-10-23T01:57:19;15.40;68.80
11647;DHT22;5880;52.342;9.662;2022-10-23T01:59:50;15.30;68.80
11647;DHT22;5880;52.342;9.662;2022-10-23T02:02:22;15.30;68.70
11647;DHT22;5880;52.342;9.662;2022-10-23T02:05:01;15.30;68.70
11647;DHT22;5880;52.342;9.662;2022-10-23T02:07:31;15.20;68.70
11647;DHT22;5880;52.342;9.662;2022-10-23T02:09:58;15.20;68.60
11647;DHT22;5880;52.342;9.662;2022-10-23T02:15:37;15.20;69.00
11647;DHT22;5880;52.342;9.662;2022-10-23T02:18:25;15.10;69.10
11647;DHT22;5880;52.342;9.662;2022-10-23T02:21:08;15.10;69.20
11647;DHT22;5880;52.342;9.662;2022-10-23T02:26:36;15.00;69.20
11647;DHT22;5880;52.342;9.662;2022-10-23T02:29:09;15.00;69.50
11647;DHT22;5880;52.342;9.662;2022-10-23T02:31:43;15.00;69.30
11647;DHT22;5880;52.342;9.662;2022-10-23T02:34:08;15.00;69.10
11647;DHT22;5880;52.342;9.662;2022-10-23T02:36:34;15.00;69.10
11647;DHT22;5880;52.342;9.662;2022-10-23T02:39:00;15.00;69.10
11647;DHT22;5880;52.342;9.662;2022-10-23T02:41:43;15.00;69.10
11647;DHT22;5880;52.342;9.662;2022-10-23T02:44:42;15.00;69.30
11647;DHT22;5880;52.342;9.662;2022-10-23T02:47:34;15.00;69.40
11647;DHT22;5880;52.342;9.662;2022-10-23T02:53:58;14.90;69.40
11647;DHT22;5880;52.342;9.662;2022-10-23T02:56:51;14.90;69.50
11647;DHT22;5880;52.342;9.662;2022-10-23T03:02:21;14.90;69.40
11647;DHT22;5880;52.342;9.662;2022-10-23T03:04:52;14.90;69.30
11647;DHT22;5880;52.342;9.662;2022-10-23T03:07:20;14.90;69.30
11647;DHT22;5880;52.342;9.662;2022-10-23T03:09:46;14.80;69.10
11647;DHT22;5880;52.342;9.662;2022-10-23T03:12:12;14.90;69.30
11647;DHT22;5880;52.342;9.662;2022-10-23T03:14:38;14.80;69.20
11647;DHT22;5880;52.342;9.662;2022-10-23T03:17:04;14.80;69.20
11647;DHT22;5880;52.342;9.662;2022-10-23T03:19:30;14.80;69.20
11647;DHT22;5880;52.342;9.662;2022-10-23T03:21:55;14.80;69.10
11647;DHT22;5880;52.342;9.662;2022-10-23T03:24:21;14.80;69.10
11647;DHT22;5880;52.342;9.662;2022-10-23T03:26:47;14.80;69.10
11647;DHT22;5880;52.342;9.662;2022-10-23T03:29:13;14.80;69.10
11647;DHT22;5880;52.342;9.662;2022-10-23T03:31:38;14.80;69.00
11647;DHT22;5880;52.342;9.662;2022-10-23T03:34:04;14.70;69.00
11647;DHT22;5880;52.342;9.662;2022-10-23T03:36:35;14.70;69.00
11647;DHT22;5880;52.342;9.662;2022-10-23T03:39:01;14.70;69.10
11647;DHT22;5880;52.342;9.662;2022-10-23T03:41:28;14.70;69.00
11647;DHT22;5880;52.342;9.662;2022-10-23T03:43:55;14.70;69.20
11647;DHT22;5880;52.342;9.662;2022-10-23T03:46:20;14.60;69.10
11647;DHT22;5880;52.342;9.662;2022-10-23T03:48:46;14.70;69.40
11647;DHT22;5880;52.342;9.662;2022-10-23T03:51:12;14.70;69.50
11647;DHT22;5880;52.342;9.662;2022-10-23T03:53:37;14.60;69.60
11647;DHT22;5880;52.342;9.662;2022-10-23T03:56:04;14.70;69.90
11647;DHT22;5880;52.342;9.662;2022-10-23T03:58:29;14.70;70.10
11647;DHT22;5880;52.342;9.662;2022-10-23T04:00:56;14.70;70.20
11647;DHT22;5880;52.342;9.662;2022-10-23T04:03:22;14.70;70.30
11647;DHT22;5880;52.342;9.662;2022-10-23T04:05:48;14.80;70.40
11647;DHT22;5880;52.342;9.662;2022-10-23T04:08:14;14.80;70.40
11647;DHT22;5880;52.342;9.662;2022-10-23T04:10:39;14.80;70.40
11647;DHT22;5880;52.342;9.662;2022-10-23T04:13:05;14.90;70.40
11647;DHT22;5880;52.342;9.662;2022-10-23T04:15:31;14.90;70.40
11647;DHT22;5880;52.342;9.662;2022-10-23T04:17:57;14.90;70.40
11647;DHT22;5880;52.342;9.662;2022-10-23T04:20:22;14.90;70.50
11647;DHT22;5880;52.342;9.662;2022-10-23T04:22:48;14.90;70.40
11647;DHT22;5880;52.342;9.662;2022-10-23T04:25:14;15.00;70.40
11647;DHT22;5880;52.342;9.662;2022-10-23T04:27:41;15.00;70.40
11647;DHT22;5880;52.342;9.662;2022-10-23T04:30:07;15.00;70.30
11647;DHT22;5880;52.342;9.662;2022-10-23T04:32:33;15.00;70.40
11647;DHT22;5880;52.342;9.662;2022-10-23T04:34:59;15.00;70.30
11647;DHT22;5880;52.342;9.662;2022-10-23T04:37:25;15.00;70.30
11647;DHT22;5880;52.342;9.662;2022-10-23T04:39:52;15.10;70.40
11647;DHT22;5880;52.342;9.662;2022-10-23T04:42:18;15.00;70.40
11647;DHT22;5880;52.342;9.662;2022-10-23T04:44:43;15.10;70.40
11647;DHT22;5880;52.342;9.662;2022-10-23T04:47:09;15.10;70.40
11647;DHT22;5880;52.342;9.662;2022-10-23T04:49:35;15.10;70.30
11647;DHT22;5880;52.342;9.662;2022-10-23T04:52:00;15.10;70.30
11647;DHT22;5880;52.342;9.662;2022-10-23T04:54:26;15.10;70.30
11647;DHT22;5880;52.342;9.662;2022-10-23T04:56:52;15.10;70.30
11647;DHT22;5880;52.342;9.662;2022-10-23T04:59:17;15.10;70.30
11647;DHT22;5880;52.342;9.662;2022-10-23T05:01:43;15.10;70.30
11647;DHT22;5880;52.342;9.662;2022-10-23T05:04:09;15.10;70.30
11647;DHT22;5880;52.342;9.662;2022-10-23T05:06:35;15.10;70.20
11647;DHT22;5880;52.342;9.662;2022-10-23T05:09:00;15.10;70.30
11647;DHT22;5880;52.342;9.662;2022-10-23T05:11:26;15.10;70.40
11647;DHT22;5880;52.342;9.662;2022-10-23T05:13:52;15.10;70.40
11647;DHT22;5880;52.342;9.662;2022-10-23T05:16:42;15.10;71.20
11647;DHT22;5880;52.342;9.662;2022-10-23T05:19:20;15.10;70.90
11647;DHT22;5880;52.342;9.662;2022-10-23T05:21:53;15.10;70.70
11647;DHT22;5880;52.342;9.662;2022-10-23T05:24:23;15.10;70.60
11647;DHT22;5880;52.342;9.662;2022-10-23T05:26:50;15.10;70.70
11647;DHT22;5880;52.342;9.662;2022-10-23T05:29:18;15.10;70.60
11647;DHT22;5880;52.342;9.662;2022-10-23T05:31:45;15.10;70.60
11647;DHT22;5880;52.342;9.662;2022-10-23T05:34:16;15.00;70.50
11647;DHT22;5880;52.342;9.662;2022-10-23T05:36:46;15.10;70.70
11647;DHT22;5880;52.342;9.662;2022-10-23T05:39:12;15.10;70.70
11647;DHT22;5880;52.342;9.662;2022-10-23T05:41:38;15.10;70.60
11647;DHT22;5880;52.342;9.662;2022-10-23T05:44:03;15.10;70.70
11647;DHT22;5880;52.342;9.662;2022-10-23T05:46:29;15.10;70.70
11647;DHT22;5880;52.342;9.662;2022-10-23T05:48:55;15.10;70.70
11647;DHT22;5880;52.342;9.662;2022-10-23T05:51:21;15.20;71.50
11647;DHT22;5880;52.342;9.662;2022-10-23T05:53:51;15.20;70.80
11647;DHT22;5880;52.342;9.662;2022-10-23T05:56:19;15.20;71.00
11647;DHT22;5880;52.342;9.662;2022-10-23T05:58:45;15.20;70.80
11647;DHT22;5880;52.342;9.662;2022-10-23T06:01:12;15.20;70.80
11647;DHT22;5880;52.342;9.662;2022-10-23T06:03:38;15.20;70.80
11647;DHT22;5880;52.342;9.662;2022-10-23T06:06:06;15.20;70.80
11647;DHT22;5880;52.342;9.662;2022-10-23T06:08:32;15.20;70.80
11647;DHT22;5880;52.342;9.662;2022-10-23T06:11:13;15.20;70.80
11647;DHT22;5880;52.342;9.662;2022-10-23T06:13:42;15.20;71.10
11647;DHT22;5880;52.342;9.662;2022-10-23T06:16:16;15.20;70.80
11647;DHT22;5880;52.342;9.662;2022-10-23T06:18:43;15.20;70.80
11647;DHT22;5880;52.342;9.662;2022-10-23T06:21:11;15.20;70.80
11647;DHT22;5880;52.342;9.662;2022-10-23T06:23:38;15.20;70.80
11647;DHT22;5880;52.342;9.662;2022-10-23T06:26:06;15.20;70.80
11647;DHT22;5880;52.342;9.662;2022-10-23T06:28:34;15.20;70.80
11647;DHT22;5880;52.342;9.662;2022-10-23T06:31:05;15.20;70.80
11647;DHT22;5880;52.342;9.662;2022-10-23T06:33:32;15.20;70.90
11647;DHT22;5880;52.342;9.662;2022-10-23T06:35:58;15.20;70.70
11647;DHT22;5880;52.342;9.662;2022-10-23T06:38:24;15.20;70.80
11647;DHT22;5880;52.342;9.662;2022-10-23T06:40:54;15.30;70.90
11647;DHT22;5880;52.342;9.662;2022-10-23T06:43:21;15.30;71.10
11647;DHT22;5880;52.342;9.662;2022-10-23T06:45:47;15.30;70.90
11647;DHT22;5880;52.342;9.662;2022-10-23T06:48:13;15.20;70.90
11647;DHT22;5880;52.342;9.662;2022-10-23T06:50:39;15.20;70.90
11647;DHT22;5880;52.342;9.662;2022-10-23T06:53:06;15.20;70.90
11647;DHT22;5880;52.342;9.662;2022-10-23T06:55:32;15.20;71.20
11647;DHT22;5880;52.342;9.662;2022-10-23T06:57:58;15.30;71.10
11647;DHT22;5880;52.342;9.662;2022-10-23T07:00:24;15.30;71.10
11647;DHT22;5880;52.342;9.662;2022-10-23T07:02:51;15.30;71.20
11647;DHT22;5880;52.342;9.662;2022-10-23T07:05:18;15.30;71.30
11647;DHT22;5880;52.342;9.662;2022-10-23T07:07:45;15.30;71.30
11647;DHT22;5880;52.342;9.662;2022-10-23T07:10:10;15.30;71.30
11647;DHT22;5880;52.342;9.662;2022-10-23T07:12:36;15.40;71.40
11647;DHT22;5880;52.342;9.662;2022-10-23T07:15:02;15.40;71.40
11647;DHT22;5880;52.342;9.662;2022-10-23T07:17:28;15.40;71.40
11647;DHT22;5880;52.342;9.662;2022-10-23T07:19:54;15.40;71.40
11647;DHT22;5880;52.342;9.662;2022-10-23T07:22:19;15.40;71.50
11647;DHT22;5880;52.342;9.662;2022-10-23T07:24:45;15.50;71.60
11647;DHT22;5880;52.342;9.662;2022-10-23T07:27:10;15.50;71.60
11647;DHT22;5880;52.342;9.662;2022-10-23T07:29:36;15.50;71.60
11647;DHT22;5880;52.342;9.662;2022-10-23T07:32:02;15.60;71.60
11647;DHT22;5880;52.342;9.662;2022-10-23T07:34:29;15.60;71.60
11647;DHT22;5880;52.342;9.662;2022-10-23T07:36:55;15.50;71.60
11647;DHT22;5880;52.342;9.662;2022-10-23T07:39:21;15.60;71.70
11647;DHT22;5880;52.342;9.662;2022-10-23T07:41:48;15.60;71.60
11647;DHT22;5880;52.342;9.662;2022-10-23T07:44:13;15.70;71.80
11647;DHT22;5880;52.342;9.662;2022-10-23T07:46:39;15.70;71.80
11647;DHT22;5880;52.342;9.662;2022-10-23T07:49:05;15.70;71.80
11647;DHT22;5880;52.342;9.662;2022-10-23T07:51:31;15.70;71.90
11647;DHT22;5880;52.342;9.662;2022-10-23T07:53:56;15.80;72.00
11647;DHT22;5880;52.342;9.662;2022-10-23T07:56:24;15.80;72.00
11647;DHT22;5880;52.342;9.662;2022-10-23T07:58:54;15.80;72.10
11647;DHT22;5880;52.342;9.662;2022-10-23T08:01:28;15.90;72.20
11647;DHT22;5880;52.342;9.662;2022-10-23T08:03:57;15.90;72.40
11647;DHT22;5880;52.342;9.662;2022-10-23T08:06:22;15.90;72.20
11647;DHT22;5880;52.342;9.662;2022-10-23T08:08:48;16.00;72.10
11647;DHT22;5880;52.342;9.662;2022-10-23T08:11:14;16.00;72.20
11647;DHT22;5880;52.342;9.662;2022-10-23T08:13:43;16.00;72.30
11647;DHT22;5880;52.342;9.662;2022-10-23T08:16:09;16.10;72.40
11647;DHT22;5880;52.342;9.662;2022-10-23T08:18:35;16.10;72.50
11647;DHT22;5880;52.342;9.662;2022-10-23T08:21:02;16.20;72.50
11647;DHT22;5880;52.342;9.662;2022-10-23T08:23:29;16.20;72.50
11647;DHT22;5880;52.342;9.662;2022-10-23T08:26:02;16.20;73.20
11647;DHT22;5880;52.342;9.662;2022-10-23T08:28:29;16.30;72.90
11647;DHT22;5880;52.342;9.662;2022-10-23T08:30:56;16.40;72.60
11647;DHT22;5880;52.342;9.662;2022-10-23T08:33:22;16.40;72.60
11647;DHT22;5880;52.342;9.662;2022-10-23T08:35:48;16.50;72.70
11647;DHT22;5880;52.342;9.662;2022-10-23T08:38:14;16.50;72.70
11647;DHT22;5880;52.342;9.662;2022-10-23T08:40:46;16.50;72.60
11647;DHT22;5880;52.342;9.662;2022-10-23T08:43:33;16.60;72.70
11647;DHT22;5880;52.342;9.662;2022-10-23T08:46:07;16.70;72.80
11647;DHT22;5880;52.342;9.662;2022-10-23T08:48:42;16.70;72.50
11647;DHT22;5880;52.342;9.662;2022-10-23T08:51:33;16.80;72.50
11647;DHT22;5880;52.342;9.662;2022-10-23T08:54:07;16.80;72.60
11647;DHT22;5880;52.342;9.662;2022-10-23T08:56:41;16.80;72.50
11647;DHT22;5880;52.342;9.662;2022-10-23T08:59:19;16.90;72.50
11647;DHT22;5880;52.342;9.662;2022-10-23T09:02:31;17.00;72.60
11647;DHT22;5880;52.342;9.662;2022-10-23T09:05:02;17.00;72.80
11647;DHT22;5880;52.342;9.662;2022-10-23T09:07:42;17.10;72.70
11647;DHT22;5880;52.342;9.662;2022-10-23T09:10:40;17.10;72.90
11647;DHT22;5880;52.342;9.662;2022-10-23T09:13:39;17.20;72.90
11647;DHT22;5880;52.342;9.662;2022-10-23T09:16:18;17.20;72.80
11647;DHT22;5880;52.342;9.662;2022-10-23T09:19:13;17.30;72.70
11647;DHT22;5880;52.342;9.662;2022-10-23T09:21:41;17.40;72.70
11647;DHT22;5880;52.342;9.662;2022-10-23T09:24:14;17.40;72.70
11647;DHT22;5880;52.342;9.662;2022-10-23T09:26:47;17.50;72.80
11647;DHT22;5880;52.342;9.662;2022-10-23T09:29:24;17.60;72.90
11647;DHT22;5880;52.342;9.662;2022-10-23T09:31:56;17.60;72.80
11647;DHT22;5880;52.342;9.662;2022-10-23T09:34:25;17.70;72.90
11647;DHT22;5880;52.342;9.662;2022-10-23T09:37:18;17.80;72.90
11647;DHT22;5880;52.342;9.662;2022-10-23T09:39:46;17.90;72.70
11647;DHT22;5880;52.342;9.662;2022-10-23T09:42:21;18.00;72.80
11647;DHT22;5880;52.342;9.662;2022-10-23T09:44:50;18.10;72.60
11647;DHT22;5880;52.342;9.662;2022-10-23T09:47:21;18.10;72.40
11647;DHT22;5880;52.342;9.662;2022-10-23T09:49:55;18.20;72.30
11647;DHT22;5880;52.342;9.662;2022-10-23T09:52:35;18.20;71.90
11647;DHT22;5880;52.342;9.662;2022-10-23T09:55:16;18.30;71.50
11647;DHT22;5880;52.342;9.662;2022-10-23T09:57:46;18.30;71.60
11647;DHT22;5880;52.342;9.662;2022-10-23T10:00:24;18.30;71.50
11647;DHT22;5880;52.342;9.662;2022-10-23T10:03:01;18.30;71.40
11647;DHT22;5880;52.342;9.662;2022-10-23T10:05:32;18.30;71.50
11647;DHT22;5880;52.342;9.662;2022-10-23T10:08:09;18.30;71.40
11647;DHT22;5880;52.342;9.662;2022-10-23T10:17:01;18.40;71.10
11647;DHT22;5880;52.342;9.662;2022-10-23T10:22:42;18.40;71.00
11647;DHT22;5880;52.342;9.662;2022-10-23T10:28:13;18.40;70.90
11647;DHT22;5880;52.342;9.662;2022-10-23T10:34:05;18.50;71.00
11647;DHT22;5880;52.342;9.662;2022-10-23T10:37:04;18.50;70.90
11647;DHT22;5880;52.342;9.662;2022-10-23T10:45:26;18.60;71.20
11647;DHT22;5880;52.342;9.662;2022-10-23T10:51:17;18.70;71.30
11647;DHT22;5880;52.342;9.662;2022-10-23T10:54:15;18.70;71.10
11647;DHT22;5880;52.342;9.662;2022-10-23T10:56:51;18.70;71.00
11647;DHT22;5880;52.342;9.662;2022-10-23T10:59:20;18.80;71.30
11647;DHT22;5880;52.342;9.662;2022-10-23T11:04:34;18.80;70.90
11647;DHT22;5880;52.342;9.662;2022-10-23T11:07:12;18.90;70.90
11647;DHT22;5880;52.342;9.662;2022-10-23T11:09:42;18.90;70.40
11647;DHT22;5880;52.342;9.662;2022-10-23T11:12:18;18.90;70.70
11647;DHT22;5880;52.342;9.662;2022-10-23T11:14:51;19.00;70.00
11647;DHT22;5880;52.342;9.662;2022-10-23T11:17:18;19.10;70.50
11647;DHT22;5880;52.342;9.662;2022-10-23T11:19:59;19.10;70.50
11647;DHT22;5880;52.342;9.662;2022-10-23T11:22:41;19.20;70.20
11647;DHT22;5880;52.342;9.662;2022-10-23T11:25:46;19.20;70.10
11647;DHT22;5880;52.342;9.662;2022-10-23T11:34:41;19.40;69.80
11647;DHT22;5880;52.342;9.662;2022-10-23T11:37:20;19.40;69.40
11647;DHT22;5880;52.342;9.662;2022-10-23T11:50:51;19.70;69.10
11647;DHT22;5880;52.342;9.662;2022-10-23T11:58:57;19.70;68.90
11647;DHT22;5880;52.342;9.662;2022-10-23T12:01:38;19.80;68.20
11647;DHT22;5880;52.342;9.662;2022-10-23T12:06:50;19.90;68.70
11647;DHT22;5880;52.342;9.662;2022-10-23T12:09:32;19.90;68.80
11647;DHT22;5880;52.342;9.662;2022-10-23T12:19:51;20.10;67.50
11647;DHT22;5880;52.342;9.662;2022-10-23T12:22:20;20.20;68.40
11647;DHT22;5880;52.342;9.662;2022-10-23T12:25:16;20.20;67.60
11647;DHT22;5880;52.342;9.662;2022-10-23T12:28:32;20.20;67.20
11647;DHT22;5880;52.342;9.662;2022-10-23T12:39:31;20.20;66.70
11647;DHT22;5880;52.342;9.662;2022-10-23T12:42:01;20.10;67.70
11647;DHT22;5880;52.342;9.662;2022-10-23T12:44:28;20.10;67.90
11647;DHT22;5880;52.342;9.662;2022-10-23T12:46:59;20.10;67.90
11647;DHT22;5880;52.342;9.662;2022-10-23T12:49:29;20.20;67.40
11647;DHT22;5880;52.342;9.662;2022-10-23T12:51:58;20.20;67.80
11647;DHT22;5880;52.342;9.662;2022-10-23T12:54:45;20.20;67.60
11647;DHT22;5880;52.342;9.662;2022-10-23T12:57:23;20.20;68.20
11647;DHT22;5880;52.342;9.662;2022-10-23T12:59:56;20.20;66.80
11647;DHT22;5880;52.342;9.662;2022-10-23T13:02:30;20.20;67.00
11647;DHT22;5880;52.342;9.662;2022-10-23T13:05:00;20.20;67.00
11647;DHT22;5880;52.342;9.662;2022-10-23T13:07:33;20.20;67.10
11647;DHT22;5880;52.342;9.662;2022-10-23T13:10:02;20.20;67.10
11647;DHT22;5880;52.342;9.662;2022-10-23T13:12:32;20.10;67.10
11647;DHT22;5880;52.342;9.662;2022-10-23T13:17:43;20.10;67.10
11647;DHT22;5880;52.342;9.662;2022-10-23T13:20:37;20.20;66.80
11647;DHT22;5880;52.342;9.662;2022-10-23T13:23:08;20.20;67.00
11647;DHT22;5880;52.342;9.662;2022-10-23T13:25:36;20.10;67.20
11647;DHT22;5880;52.342;9.662;2022-10-23T13:30:35;20.10;67.10
11647;DHT22;5880;52.342;9.662;2022-10-23T13:33:22;20.20;67.50
11647;DHT22;5880;52.342;9.662;2022-10-23T13:36:04;20.20;67.00
11647;DHT22;5880;52.342;9.662;2022-10-23T13:38:39;20.20;67.00
11647;DHT22;5880;52.342;9.662;2022-10-23T13:41:10;20.20;66.90
11647;DHT22;5880;52.342;9.662;2022-10-23T13:43:39;20.20;67.00
11647;DHT22;5880;52.342;9.662;2022-10-23T13:48:44;20.20;66.60
11647;DHT22;5880;52.342;9.662;2022-10-23T13:51:18;20.20;66.90
11647;DHT22;5880;52.342;9.662;2022-10-23T13:53:46;20.20;66.90
11647;DHT22;5880;52.342;9.662;2022-10-23T13:56:13;20.10;66.80
11647;DHT22;5880;52.342;9.662;2022-10-23T13:58:41;20.20;66.70
11647;DHT22;5880;52.342;9.662;2022-10-23T14:01:19;20.20;66.60
11647;DHT22;5880;52.342;9.662;2022-10-23T14:03:48;20.20;66.40
11647;DHT22;5880;52.342;9.662;2022-10-23T14:06:15;20.20;66.70
11647;DHT22;5880;52.342;9.662;2022-10-23T14:08:41;20.10;66.60
11647;DHT22;5880;52.342;9.662;2022-10-23T14:11:09;20.30;66.70
11647;DHT22;5880;52.342;9.662;2022-10-23T14:13:36;20.10;66.50
11647;DHT22;5880;52.342;9.662;2022-10-23T14:16:02;20.10;66.50
11647;DHT22;5880;52.342;9.662;2022-10-23T14:18:27;20.10;66.50
11647;DHT22;5880;52.342;9.662;2022-10-23T14:20:53;20.10;66.50
11647;DHT22;5880;52.342;9.662;2022-10-23T14:23:19;20.10;66.60
11647;DHT22;5880;52.342;9.662;2022-10-23T14:25:44;20.00;66.50
11647;DHT22;5880;52.342;9.662;2022-10-23T14:28:10;20.10;66.50
11647;DHT22;5880;52.342;9.662;2022-10-23T14:30:36;20.00;66.50
11647;DHT22;5880;52.342;9.662;2022-10-23T14:33:02;20.00;66.50
11647;DHT22;5880;52.342;9.662;2022-10-23T14:35:28;20.10;66.80
11647;DHT22;5880;52.342;9.662;2022-10-23T14:37:54;20.00;66.60
11647;DHT22;5880;52.342;9.662;2022-10-23T14:40:20;20.00;66.70
11647;DHT22;5880;52.342;9.662;2022-10-23T14:42:45;20.00;66.80
11647;DHT22;5880;52.342;9.662;2022-10-23T14:45:11;20.00;66.70
11647;DHT22;5880;52.342;9.662;2022-10-23T14:47:37;20.00;66.70
11647;DHT22;5880;52.342;9.662;2022-10-23T14:50:03;20.00;66.70
11647;DHT22;5880;52.342;9.662;2022-10-23T14:52:29;20.00;66.70
11647;DHT22;5880;52.342;9.662;2022-10-23T14:54:54;20.00;66.70
11647;DHT22;5880;52.342;9.662;2022-10-23T14:57:20;20.00;66.70
11647;DHT22;5880;52.342;9.662;2022-10-23T14:59:47;20.00;66.70
11647;DHT22;5880;52.342;9.662;2022-10-23T15:02:14;20.00;66.70
11647;DHT22;5880;52.342;9.662;2022-10-23T15:04:40;20.00;66.60
11647;DHT22;5880;52.342;9.662;2022-10-23T15:07:06;20.00;66.70
11647;DHT22;5880;52.342;9.662;2022-10-23T15:09:35;20.00;66.60
11647;DHT22;5880;52.342;9.662;2022-10-23T15:12:02;20.00;66.70
11647;DHT22;5880;52.342;9.662;2022-10-23T15:14:29;20.00;66.60
11647;DHT22;5880;52.342;9.662;2022-10-23T15:16:55;19.90;66.60
11647;DHT22;5880;52.342;9.662;2022-10-23T15:19:20;19.90;66.50
11647;DHT22;5880;52.342;9.662;2022-10-23T15:21:47;19.90;66.60
11647;DHT22;5880;52.342;9.662;2022-10-23T15:24:14;19.90;67.30
11647;DHT22;5880;52.342;9.662;2022-10-23T15:26:41;19.90;66.60
11647;DHT22;5880;52.342;9.662;2022-10-23T15:29:08;19.90;66.60
11647;DHT22;5880;52.342;9.662;2022-10-23T15:34:07;19.80;66.50
11647;DHT22;5880;52.342;9.662;2022-10-23T15:36:35;19.80;66.50
11647;DHT22;5880;52.342;9.662;2022-10-23T15:39:01;19.80;66.50
11647;DHT22;5880;52.342;9.662;2022-10-23T15:41:29;19.80;66.50
11647;DHT22;5880;52.342;9.662;2022-10-23T15:44:00;19.80;66.50
11647;DHT22;5880;52.342;9.662;2022-10-23T15:46:27;19.70;66.40
11647;DHT22;5880;52.342;9.662;2022-10-23T15:48:53;19.70;66.60
11647;DHT22;5880;52.342;9.662;2022-10-23T15:51:19;19.70;66.60
11647;DHT22;5880;52.342;9.662;2022-10-23T15:53:45;19.70;66.60
11647;DHT22;5880;52.342;9.662;2022-10-23T15:56:11;19.60;66.50
11647;DHT22;5880;52.342;9.662;2022-10-23T15:58:37;19.50;66.50
11647;DHT22;5880;52.342;9.662;2022-10-23T16:01:04;19.50;66.50
11647;DHT22;5880;52.342;9.662;2022-10-23T16:03:35;19.50;66.60
11647;DHT22;5880;52.342;9.662;2022-10-23T16:06:07;19.50;66.60
11647;DHT22;5880;52.342;9.662;2022-10-23T16:08:35;19.40;66.40
11647;DHT22;5880;52.342;9.662;2022-10-23T16:11:01;19.40;66.50
11647;DHT22;5880;52.342;9.662;2022-10-23T16:13:27;19.40;66.50
11647;DHT22;5880;52.342;9.662;2022-10-23T16:15:53;19.40;66.60
11647;DHT22;5880;52.342;9.662;2022-10-23T16:18:20;19.40;66.60
11647;DHT22;5880;52.342;9.662;2022-10-23T16:20:47;19.30;66.60
11647;DHT22;5880;52.342;9.662;2022-10-23T16:23:15;19.30;66.60
11647;DHT22;5880;52.342;9.662;2022-10-23T16:25:41;19.30;66.60
11647;DHT22;5880;52.342;9.662;2022-10-23T16:28:06;19.30;66.70
11647;DHT22;5880;52.342;9.662;2022-10-23T16:30:32;19.20;66.60
11647;DHT22;5880;52.342;9.662;2022-10-23T16:32:58;19.20;66.60
11647;DHT22;5880;52.342;9.662;2022-10-23T16:35:23;19.30;66.70
11647;DHT22;5880;52.342;9.662;2022-10-23T16:37:49;19.20;66.60
11647;DHT22;5880;52.342;9.662;2022-10-23T16:40:15;19.20;66.60
11647;DHT22;5880;52.342;9.662;2022-10-23T16:42:41;19.20;66.60
11647;DHT22;5880;52.342;9.662;2022-10-23T16:45:07;19.20;66.60
11647;DHT22;5880;52.342;9.662;2022-10-23T16:47:34;19.20;66.60
11647;DHT22;5880;52.342;9.662;2022-10-23T16:50:00;19.10;66.60
11647;DHT22;5880;52.342;9.662;2022-10-23T16:52:26;19.10;66.50
11647;DHT22;5880;52.342;9.662;2022-10-23T16:54:52;19.10;66.50
11647;DHT22;5880;52.342;9.662;2022-10-23T16:57:18;19.10;66.60
11647;DHT22;5880;52.342;9.662;2022-10-23T16:59:44;19.10;66.60
11647;DHT22;5880;52.342;9.662;2022-10-23T17:02:11;19.10;66.60
11647;DHT22;5880;52.342;9.662;2022-10-23T17:04:37;19.10;66.50
11647;DHT22;5880;52.342;9.662;2022-10-23T17:07:04;19.00;66.40
11647;DHT22;5880;52.342;9.662;2022-10-23T17:09:31;19.00;66.30
11647;DHT22;5880;52.342;9.662;2022-10-23T17:11:58;19.10;66.50
11647;DHT22;5880;52.342;9.662;2022-10-23T17:14:24;19.10;66.40
11647;DHT22;5880;52.342;9.662;2022-10-23T17:16:54;19.10;66.40
11647;DHT22;5880;52.342;9.662;2022-10-23T17:19:23;19.00;66.10
11647;DHT22;5880;52.342;9.662;2022-10-23T17:21:52;19.00;66.10
11647;DHT22;5880;52.342;9.662;2022-10-23T17:24:19;19.00;66.00
11647;DHT22;5880;52.342;9.662;2022-10-23T17:26:45;19.00;66.00
11647;DHT22;5880;52.342;9.662;2022-10-23T17:29:11;19.00;66.00
11647;DHT22;5880;52.342;9.662;2022-10-23T17:31:42;19.00;66.00
11647;DHT22;5880;52.342;9.662;2022-10-23T17:34:14;19.00;66.00
11647;DHT22;5880;52.342;9.662;2022-10-23T17:36:44;19.00;66.10
11647;DHT22;5880;52.342;9.662;2022-10-23T17:39:14;19.00;66.10
11647;DHT22;5880;52.342;9.662;2022-10-23T17:41:42;19.00;66.10
11647;DHT22;5880;52.342;9.662;2022-10-23T17:44:09;19.00;66.10
11647;DHT22;5880;52.342;9.662;2022-10-23T17:46:35;19.00;66.20